Flight Track Log - Related Links

Times and Time Zones

All times are in EDT time to prevent confusion due to time zone crossing. See the N27XP flight status page for this flight to view local times or setup timezone preferences in your user account.

Time Position Orientation Groundspeed Altitude Reporting Facility
EDT Latitude Longitude Course Direction KTS MPH feet Rate Location/Type
Thu 21:31:54 40.7008 -75.4300 229° Southwest 177 204 4,900  Level New York Center
Thu 21:32:54 40.6814 -75.4997 250° West 129 148 8,000 2,033 Climbing New York Center
Thu 21:33:55 40.6300 -75.5892 233° Southwest 202 232 9,000 934 Climbing New York Center
Thu 21:34:56 40.5825 -75.6814 236° Southwest 263 303 9,900 1,475 Climbing New York Center
Thu 21:35:53 40.5206 -75.7672 227° Southwest 316 364 11,900 1,983 Climbing New York Center
Thu 21:36:54 40.4589 -75.8444 224° Southwest 335 386 13,800 1,967 Climbing New York Center
Thu 21:37:00 40.0613 -76.2165 229° Southwest  Level FlightAware Approximate
Thu 21:37:55 40.3978 -75.9544 234° Southwest 343 395 15,900  Level New York Center
Thu 21:38:55 40.3450 -76.0650 238° Southwest 362 417 17,900 1,900 Climbing New York Center
Thu 21:39:55 40.2858 -76.1747 235° Southwest 362 417 19,700 1,563 Climbing New York Center
Thu 21:40:54 40.2433 -76.2775 242° Southwest 362 417 21,000 1,412 Climbing New York Center
Thu 21:41:54 40.1981 -76.3989 244° Southwest 362 417 22,500 1,475 Climbing New York Center
Thu 21:42:56 40.1539 -76.5367 247° West 373 429 24,000 1,500 Climbing New York Center
Thu 21:43:54 40.1061 -76.6631 244° Southwest 385 443 25,500 1,664 Climbing New York Center
Thu 21:44:55 40.0564 -76.7808 241° Southwest 385 443 27,300 1,574 Climbing New York Center
Thu 21:45:56 39.9844 -76.8831 227° Southwest 385 443 28,700 1,288 Climbing New York Center
Thu 21:47:52 39.7972 -76.9986 205° Southwest 373 429 31,100 1,125 Climbing Washington Center
Thu 21:48:52 39.7025 -77.0614 207° Southwest 379 436 32,000 458 Climbing Washington Center
Thu 21:49:50 39.6017 -77.1294 207° Southwest 391 450 32,000  Level Washington Center
Thu 21:50:51 39.4967 -77.1944 206° Southwest 405 466 32,000  Level Washington Center
Thu 21:51:52 39.3894 -77.2672 208° Southwest 425 489 32,000  Level Washington Center
Thu 21:52:53 39.2842 -77.3344 206° Southwest 425 489 32,000  Level Washington Center
Thu 21:53:50 39.1792 -77.4042 207° Southwest 425 489 32,000  Level Washington Center
Thu 21:54:51 39.0739 -77.4739 207° Southwest 430 495 32,000  Level Washington Center
Thu 21:55:52 38.9747 -77.5381 207° Southwest 430 495 32,000  Level Washington Center
Thu 21:56:50 38.8567 -77.6150 207° Southwest 430 495 32,000  Level Washington Center
Thu 21:57:51 38.7514 -77.6786 205° Southwest 444 511 32,000  Level Washington Center
Thu 21:58:51 38.6481 -77.7500 208° Southwest 444 511 32,000  Level Washington Center
Thu 21:59:52 38.5364 -77.8186 206° Southwest 444 511 32,000  Level Washington Center
Thu 22:00:50 38.4286 -77.8894 207° Southwest 439 505 32,000  Level Washington Center
Thu 22:01:51 38.3208 -77.9603 207° Southwest 439 505 32,000  Level Washington Center
Thu 22:02:50 38.2111 -78.0281 206° Southwest 439 505 32,000  Level Washington Center
Thu 22:03:51 38.1011 -78.0986 207° Southwest 439 505 32,000 -98 Level Washington Center
Thu 22:04:52 37.9828 -78.1708 206° Southwest 439 505 31,800 -504 Descending Washington Center
Thu 22:05:50 37.8897 -78.2361 209° Southwest 439 505 31,000 -1,059 Descending Washington Center
Thu 22:06:51 37.7689 -78.3161 208° Southwest 439 505 29,700 -1,131 Descending Washington Center
Thu 22:07:52 37.6569 -78.3881 207° Southwest 444 511 28,700 -1,041 Descending Washington Center
Thu 22:08:52 37.5367 -78.4361 198° South 444 511 27,600 -1,068 Descending Washington Center
Thu 22:09:50 37.4069 -78.4625 189° South 460 529 26,600 -864 Descending Washington Center
Thu 22:10:50 37.2894 -78.4869 189° South 465 535 25,900 -793 Descending Washington Center
Thu 22:11:51 37.1636 -78.5133 189° South 470 541 25,000 -984 Descending Washington Center
Thu 22:12:52 37.0336 -78.5397 189° South 470 541 23,900 -1,109 Descending Washington Center
Thu 22:13:50 36.9097 -78.5689 191° South 470 541 22,800 -1,109 Descending Washington Center
Thu 22:14:51 36.7756 -78.5947 189° South 464 534 21,700 -1,033 Descending Washington Center
Thu 22:15:52 36.6561 -78.6236 191° South 453 521 20,700 -843 Descending Washington Center
Thu 22:16:52 36.5344 -78.6500 190° South 447 514 20,000 -458 Descending Washington Center
Thu 22:17:50 36.4189 -78.6739 189° South 442 509 19,800 -864 Descending Washington Center
Thu 22:18:50 36.3014 -78.6978 189° South 431 496 18,300 -1,424 Descending Washington Center
Thu 22:19:48 36.1989 -78.7167 188° South 414 476 17,000 -1,500 Descending Washington Center
Thu 22:20:50 36.0769 -78.7453 191° South 420 483 15,300 -1,561 Descending Washington Center
Thu 22:21:51 35.9681 -78.7667 189° South 409 471 13,800 -1,475 Descending Washington Center
Thu 22:22:52 35.8669 -78.7933 192° South 396 456 12,300 -1,513 Descending Washington Center
Thu 22:23:50 35.7861 -78.8592 213° Southwest 360 414 10,800 -1,563 Descending Washington Center
Thu 22:24:51 35.7111 -78.9303 218° Southwest 354 407 9,200 -1,537 Descending Washington Center
Thu 22:25:51 35.6425 -78.9939 217° Southwest 336 387 7,700 -1,289 Descending Washington Center
Thu 22:26:52 35.5781 -79.0550 218° Southwest 311 358 6,600 -1,059 Descending Washington Center
Thu 22:27:50 35.5181 -79.1111 217° Southwest 302 348 5,600 -1,068 Descending Washington Center
Thu 22:28:50 35.4472 -79.1769 217° Southwest 302 348 4,500 -1,100 Descending Washington Center

Login

Don't have an account? Register now (free) for customized features, flight alerts, and more!